aviador You're here:

PASL Decoded Metar

SLEETMUTE in AK, USA
Report Time2018-06-21 12:02:00
UTC Time2018-06-21 12:23:58
Flight Rules vfr VFR
WindCalm
Visibility9999 m
Phenomena:Light Rain
Clouds:Broken 070 Hf
Overcast 085 Hf
Ceiling7,000 ft
Temp09°C (ISA -6)
Dew Point09°C (100% RH)
AAT8.8°C
QNH1006 hPa
Density Alt-102 ft
Elevation180 ft
Report Wrong Elevation
Raw Report
PASL 211202Z AUTO 00000KT 10SM -RA BKN070 OVC085 09/09 A2972 RMK
AO2 RAB1120 SLP062 P0000 60026 70029 T00940089 10111 20094
58015=

Extra information for PASL:More info

Metar Taf Metar & Taf Last 4 Metars F.Rules Stats Wind Profile Meteogram Temp Stats Airport Information Weather charts Add Link Nearby VenuesMetar ALERT Operation Metar Decoded Social comments

AIRNAV info for PASL